METAR Data
IDs: Format: Raw Decoded Include TAF

Data at: 2306 UTC 20 Jan 2021

KSCH 202251Z 29014G21KT 15SM CLR M05/M13 A3002